Aviation Digital Data Service (ADDS)

Output produced by METARs form (0550 UTC 16 February 2019)
found at http://www.aviationweather.gov/metar/data/
 
METAR text: RJFY 160320Z 29018G28KT 9999 FEW020 SCT035 BKN120 11/03 Q1018 RMK 1CU020 4CU035 6AC120 A3006
Conditions at: RJFY (KANOYA (JMSDF) , JP) observed 0320 UTC 16 February 2019
Temperature: 11.0°C (52°F)
Dewpoint: 3.0°C (37°F) [RH = 58%]
Pressure (altimeter): 30.06 inches Hg (1018.0 mb)
Winds: from the WNW (290 degrees) at 21 MPH (18 knots; 9.3 m/s)
gusting to 32 MPH (28 knots; 14.4 m/s)
Visibility: 6 or more miles (10+ km)
Ceiling: 12000 feet AGL
Clouds: few clouds at 2000 feet AGL
scattered clouds at 3500 feet AGL
broken clouds at 12000 feet AGL
Weather: no significant weather observed at this time

METAR text: RJFY 160038Z 29015G25KT 9999 FEW010 BKN020 BKN080 10/05 Q1019 RMK 1CU010 6CU020 7AC080 A3009
Conditions at: RJFY (KANOYA (JMSDF) , JP) observed 0038 UTC 16 February 2019
Temperature: 10.0°C (50°F)
Dewpoint: 5.0°C (41°F) [RH = 71%]
Pressure (altimeter): 30.09 inches Hg (1019.0 mb)
Winds: from the WNW (290 degrees) at 17 MPH (15 knots; 7.7 m/s)
gusting to 29 MPH (25 knots; 12.9 m/s)
Visibility: 6 or more miles (10+ km)
Ceiling: 2000 feet AGL
Clouds: few clouds at 1000 feet AGL
broken clouds at 2000 feet AGL
broken clouds at 8000 feet AGL
Weather: no significant weather observed at this time

METAR text: RJFY 151919Z 31004KT 5000 BR FEW003 SCT050 BKN090 09/09 Q1016 RMK 2ST003 4SC050 5AC090 A3003 VIS VRB
Conditions at: RJFY (KANOYA (JMSDF) , JP) observed 1919 UTC 15 February 2019
Temperature: 9.0°C (48°F)
Dewpoint: 9.0°C (48°F) [RH = 100%]
Pressure (altimeter): 30.00 inches Hg (1016.0 mb)
Winds: from the NW (310 degrees) at 5 MPH (4 knots; 2.1 m/s)
Visibility: 3 miles ( 5 km)
Ceiling: 9000 feet AGL
Clouds: few clouds at 300 feet AGL
scattered clouds at 5000 feet AGL
broken clouds at 9000 feet AGL
Weather: BR  (mist)

METAR text: RJFY 151915Z 31004KT 3200 BR FEW001 SCT050 BKN090 09/09 Q1016 RMK 2ST001 3SC050 5AC090 A3003
Conditions at: RJFY (KANOYA (JMSDF) , JP) observed 1915 UTC 15 February 2019
Temperature: 9.0°C (48°F)
Dewpoint: 9.0°C (48°F) [RH = 100%]
Pressure (altimeter): 30.00 inches Hg (1016.0 mb)
Winds: from the NW (310 degrees) at 5 MPH (4 knots; 2.1 m/s)
Visibility: 1.99 miles (3.20 km)
Ceiling: 9000 feet AGL
Clouds: few clouds at 100 feet AGL
scattered clouds at 5000 feet AGL
broken clouds at 9000 feet AGL
Weather: BR  (mist)

METAR text: RJFY 151747Z 01001KT 4900 BR SCT001 SCT006 BKN060 10/09 Q1016 RMK 4ST001 3ST006 7SC060 A3003
Conditions at: RJFY (KANOYA (JMSDF) , JP) observed 1747 UTC 15 February 2019
Temperature: 10.0°C (50°F)
Dewpoint: 9.0°C (48°F) [RH = 93%]
Pressure (altimeter): 30.00 inches Hg (1016.0 mb)
Winds: from the N (10 degrees) at 1 MPH (1 knots; 0.5 m/s)
Visibility: 3 miles ( 5 km)
Ceiling: 6000 feet AGL
Clouds: scattered clouds at 100 feet AGL
scattered clouds at 600 feet AGL
broken clouds at 6000 feet AGL
Weather: BR  (mist)

METAR text: RJFY 151711Z 24003KT 200V280 5000 BR FEW002 SCT035 OVC050 10/09 Q1017 RMK 1ST002 4SC035 8SC050 A3004
Conditions at: RJFY (KANOYA (JMSDF) , JP) observed 1711 UTC 15 February 2019
Temperature: 10.0°C (50°F)
Dewpoint: 9.0°C (48°F) [RH = 93%]
Pressure (altimeter): 30.03 inches Hg (1017.0 mb)
Winds: from the WSW (240 degrees) at 3 MPH (3 knots; 1.5 m/s)
Visibility: 3 miles ( 5 km)
Ceiling: 5000 feet AGL
Clouds: few clouds at 200 feet AGL
scattered clouds at 3500 feet AGL
overcast cloud deck at 5000 feet AGL
Weather: BR  (mist)

METAR text: RJFY 151649Z 19002KT 3200 -RA BR FEW002 SCT008 OVC035 10/09 Q1017 RMK 2ST002 4ST008 8SC035 A3005 VIS VRB
Conditions at: RJFY (KANOYA (JMSDF) , JP) observed 1649 UTC 15 February 2019
Temperature: 10.0°C (50°F)
Dewpoint: 9.0°C (48°F) [RH = 93%]
Pressure (altimeter): 30.03 inches Hg (1017.0 mb)
Winds: from the S (190 degrees) at 2 MPH (2 knots; 1.0 m/s)
Visibility: 1.99 miles (3.20 km)
Ceiling: 3500 feet AGL
Clouds: few clouds at 200 feet AGL
scattered clouds at 800 feet AGL
overcast cloud deck at 3500 feet AGL
Weather: -RA BR  (light rain, mist)

METAR text: RJFY 151640Z 16002KT 2400 -RA BR FEW002 BKN008 OVC035 10/09 Q1017 RMK 2ST002 6ST008 8SC035 A3006 VIS VRB
Conditions at: RJFY (KANOYA (JMSDF) , JP) observed 1640 UTC 15 February 2019
Temperature: 10.0°C (50°F)
Dewpoint: 9.0°C (48°F) [RH = 93%]
Pressure (altimeter): 30.03 inches Hg (1017.0 mb)
Winds: from the SSE (160 degrees) at 2 MPH (2 knots; 1.0 m/s)
Visibility: 1.49 miles (2.40 km)
Ceiling: 800 feet AGL
Clouds: few clouds at 200 feet AGL
broken clouds at 800 feet AGL
overcast cloud deck at 3500 feet AGL
Weather: -RA BR  (light rain, mist)

METAR text: RJFY 151632Z 16002KT 1800 R26/1800U -RA BR FEW002 BKN008 OVC035 10/09 Q1017 RMK 2ST002 6ST008 8SC035 A3005
Conditions at: RJFY (KANOYA (JMSDF) , JP) observed 1632 UTC 15 February 2019
Temperature: 10.0°C (50°F)
Dewpoint: 9.0°C (48°F) [RH = 93%]
Pressure (altimeter): 30.03 inches Hg (1017.0 mb)
Winds: from the SSE (160 degrees) at 2 MPH (2 knots; 1.0 m/s)
Visibility: 1.12 miles (1.80 km)
Ceiling: 800 feet AGL
Clouds: few clouds at 200 feet AGL
broken clouds at 800 feet AGL
overcast cloud deck at 3500 feet AGL
Weather: -RA BR  (light rain, mist)

METAR text: RJFY 151619Z 16002KT 1800 R26/1700D -RA BR FEW002 BKN008 BKN015 10/09 Q1017 RMK 2ST002 5ST008 5CU015 A3005
Conditions at: RJFY (KANOYA (JMSDF) , JP) observed 1619 UTC 15 February 2019
Temperature: 10.0°C (50°F)
Dewpoint: 9.0°C (48°F) [RH = 93%]
Pressure (altimeter): 30.03 inches Hg (1017.0 mb)
Winds: from the SSE (160 degrees) at 2 MPH (2 knots; 1.0 m/s)
Visibility: 1.12 miles (1.80 km)
Ceiling: 800 feet AGL
Clouds: few clouds at 200 feet AGL
broken clouds at 800 feet AGL
broken clouds at 1500 feet AGL
Weather: -RA BR  (light rain, mist)

METAR text: RJFY 151540Z 18002KT 3100 -RA BR FEW002 SCT008 BKN015 10/09 Q1017 RMK 2ST002 3ST008 5CU015 A3006
Conditions at: RJFY (KANOYA (JMSDF) , JP) observed 1540 UTC 15 February 2019
Temperature: 10.0°C (50°F)
Dewpoint: 9.0°C (48°F) [RH = 93%]
Pressure (altimeter): 30.03 inches Hg (1017.0 mb)
Winds: from the S (180 degrees) at 2 MPH (2 knots; 1.0 m/s)
Visibility: 1.93 miles (3.11 km)
Ceiling: 1500 feet AGL
Clouds: few clouds at 200 feet AGL
scattered clouds at 800 feet AGL
broken clouds at 1500 feet AGL
Weather: -RA BR  (light rain, mist)

METAR text: RJFY 151437Z 34001KT 3200 -RA BR FEW003 SCT005 OVC035 10/09 Q1018 RMK 1ST003 4ST005 8SC035 A3007
Conditions at: RJFY (KANOYA (JMSDF) , JP) observed 1437 UTC 15 February 2019
Temperature: 10.0°C (50°F)
Dewpoint: 9.0°C (48°F) [RH = 93%]
Pressure (altimeter): 30.06 inches Hg (1018.0 mb)
Winds: from the NNW (340 degrees) at 1 MPH (1 knots; 0.5 m/s)
Visibility: 1.99 miles (3.20 km)
Ceiling: 3500 feet AGL
Clouds: few clouds at 300 feet AGL
scattered clouds at 500 feet AGL
overcast cloud deck at 3500 feet AGL
Weather: -RA BR  (light rain, mist)

METAR text: RJFY 151418Z 32003KT 2400 -RA BR FEW003 BKN005 OVC035 10/09 Q1018 RMK 2ST003 5ST005 8SC035 A3007
Conditions at: RJFY (KANOYA (JMSDF) , JP) observed 1418 UTC 15 February 2019
Temperature: 10.0°C (50°F)
Dewpoint: 9.0°C (48°F) [RH = 93%]
Pressure (altimeter): 30.06 inches Hg (1018.0 mb)
Winds: from the NW (320 degrees) at 3 MPH (3 knots; 1.5 m/s)
Visibility: 1.49 miles (2.40 km)
Ceiling: 500 feet AGL
Clouds: few clouds at 300 feet AGL
broken clouds at 500 feet AGL
overcast cloud deck at 3500 feet AGL
Weather: -RA BR  (light rain, mist)

METAR text: RJFY 151019Z 10002KT 1600 R26/1800U -RA BR FEW001 BKN005 OVC035 10/09 Q1019 RMK 2ST001 6ST005 8SC035 A3010
Conditions at: RJFY (KANOYA (JMSDF) , JP) observed 1019 UTC 15 February 2019
Temperature: 10.0°C (50°F)
Dewpoint: 9.0°C (48°F) [RH = 93%]
Pressure (altimeter): 30.09 inches Hg (1019.0 mb)
Winds: from the E (100 degrees) at 2 MPH (2 knots; 1.0 m/s)
Visibility: 0.99 miles (1.59 km)
Ceiling: 500 feet AGL
Clouds: few clouds at 100 feet AGL
broken clouds at 500 feet AGL
overcast cloud deck at 3500 feet AGL
Weather: -RA BR  (light rain, mist)

METAR text: RJFY 150946Z 09002KT 1500 R26/1000VP1800D -RA BR BKN005 OVC035 10/09 Q1019 RMK 6ST005 8SC035 A3010 R1300
Conditions at: RJFY (KANOYA (JMSDF) , JP) observed 0946 UTC 15 February 2019
Temperature: 10.0°C (50°F)
Dewpoint: 9.0°C (48°F) [RH = 93%]
Pressure (altimeter): 30.09 inches Hg (1019.0 mb)
Winds: from the E (90 degrees) at 2 MPH (2 knots; 1.0 m/s)
Visibility: 0.93 miles (1.50 km)
Ceiling: 500 feet AGL
Clouds: broken clouds at 500 feet AGL
overcast cloud deck at 3500 feet AGL
Weather: -RA BR  (light rain, mist)

METAR text: RJFY 150915Z 09001KT 1800 R26/1700D -RA BR BKN005 OVC030 10/09 Q1019 RMK 5ST005 8SC030 A3010
Conditions at: RJFY (KANOYA (JMSDF) , JP) observed 0915 UTC 15 February 2019
Temperature: 10.0°C (50°F)
Dewpoint: 9.0°C (48°F) [RH = 93%]
Pressure (altimeter): 30.09 inches Hg (1019.0 mb)
Winds: from the E (90 degrees) at 1 MPH (1 knots; 0.5 m/s)
Visibility: 1.12 miles (1.80 km)
Ceiling: 500 feet AGL
Clouds: broken clouds at 500 feet AGL
overcast cloud deck at 3000 feet AGL
Weather: -RA BR  (light rain, mist)

METAR text: RJFY 150802Z 16001KT 2300 -RA BR FEW005 SCT020 OVC040 10/08 Q1019 RMK 1ST005 3CU020 8SC040 A3010 VIS VRB
Conditions at: RJFY (KANOYA (JMSDF) , JP) observed 0802 UTC 15 February 2019
Temperature: 10.0°C (50°F)
Dewpoint: 8.0°C (46°F) [RH = 87%]
Pressure (altimeter): 30.09 inches Hg (1019.0 mb)
Winds: from the SSE (160 degrees) at 1 MPH (1 knots; 0.5 m/s)
Visibility: 1.43 miles (2.30 km)
Ceiling: 4000 feet AGL
Clouds: few clouds at 500 feet AGL
scattered clouds at 2000 feet AGL
overcast cloud deck at 4000 feet AGL
Weather: -RA BR  (light rain, mist)

METAR text: RJFY 150740Z VRB02KT 5000 -RA BR FEW005 SCT020 OVC040 11/08 Q1019 RMK 1ST005 3CU020 8SC040 A3010
Conditions at: RJFY (KANOYA (JMSDF) , JP) observed 0740 UTC 15 February 2019
Temperature: 11.0°C (52°F)
Dewpoint: 8.0°C (46°F) [RH = 82%]
Pressure (altimeter): 30.09 inches Hg (1019.0 mb)
Winds: variable direction winds at 2 MPH (2 knots; 1.0 m/s)
Visibility: 3 miles ( 5 km)
Ceiling: 4000 feet AGL
Clouds: few clouds at 500 feet AGL
scattered clouds at 2000 feet AGL
overcast cloud deck at 4000 feet AGL
Weather: -RA BR  (light rain, mist)

METAR text: RJFY 150725Z 12001KT 4900 -RA BR FEW008 OVC040 11/08 Q1019 RMK 1ST008 8SC040 A3011
Conditions at: RJFY (KANOYA (JMSDF) , JP) observed 0725 UTC 15 February 2019
Temperature: 11.0°C (52°F)
Dewpoint: 8.0°C (46°F) [RH = 82%]
Pressure (altimeter): 30.09 inches Hg (1019.0 mb)
Winds: from the ESE (120 degrees) at 1 MPH (1 knots; 0.5 m/s)
Visibility: 3 miles ( 5 km)
Ceiling: 4000 feet AGL
Clouds: few clouds at 800 feet AGL
overcast cloud deck at 4000 feet AGL
Weather: -RA BR  (light rain, mist)